Bayview, Wisconsin
Current Conditions -  °F | °C
As of 9:52 PM on Saturday 25 Oct 2014 (Local Time) from KMKE Reporting Station
Clear Clear  
Wind Chill: 56°   Ceiling: Unl
Heat Index: 56°   Visibility: 10mi
Dew Point: 26°   Wind: 8mph
Humidity: 32%   Direction: 300°WNW
Pressure: 29.95"   Gusts: NA
Location:  42.9708°N, 87.8754°W
Report Text: KMKE 260252Z 30007KT 10SM CLR 13/M03 A2995 RMK AO2 SLP141 T01331033 51013
Loading
Personal Weather Stations






























Interactive Weather Map New forecast layout! Learn more

10-Day Weather Forecast

Advertisements
Track Severe Weather on mobile